Time;durP1;ratioP1;P1;durP2;ratioP2;P2;SDS_P1;SDS_P2;PMS_P1;PMS_P2;Temp;Humidity;BMP_temperature;BMP_pressure;BME280_temperature;BME280_humidity;BME280_pressure;Samples;Min_cycle;Max_cycle;Signal;HPM_P1;HPM_P2
2021/08/29 00:01:13;;;;;;;;;;;;;;;19.96;65.96;101910.84;5077237;28;946;-56
2021/08/29 00:03:38;;;;;;;;;;;;;;;19.96;66.26;101902.72;5077716;28;1902;-56
2021/08/29 00:06:03;;;;;;;;;;;;;;;19.95;65.80;101899.16;5077093;28;1068;-56
2021/08/29 00:08:28;;;;;;;;;;;;;;;19.95;66.16;101898.31;5077732;28;1540;-57
2021/08/29 00:10:53;;;;;;;;;;;;;;;19.95;66.50;101892.91;5077550;28;1145;-57
2021/08/29 00:13:18;;;;;;;;;;;;;;;19.94;66.35;101893.88;5077555;28;941;-57
2021/08/29 00:15:43;;;;;;;;;;;;;;;19.96;65.79;101894.63;5077021;28;1595;-55
2021/08/29 00:18:08;;;;;;;;;;;;;;;19.94;65.52;101894.75;5077472;28;1561;-57
2021/08/29 00:20:33;;;;;;;;;;;;;;;19.93;65.65;101892.16;5077310;28;855;-58
2021/08/29 00:22:58;;;;;;;;;;;;;;;19.93;66.21;101882.19;5075871;28;1913;-58
2021/08/29 00:25:23;;;;;;;;;;;;;;;19.94;65.87;101888.47;5077200;28;1118;-59
2021/08/29 00:27:49;;;;;;;;;;;;;;;19.93;65.85;101875.94;5077610;28;1498;-59
2021/08/29 00:30:14;;;;;;;;;;;;;;;19.93;65.86;101881.34;5077156;28;862;-57
2021/08/29 00:32:39;;;;;;;;;;;;;;;19.92;65.97;101879.63;5077044;28;1009;-59
2021/08/29 00:35:04;;;;;;;;;;;;;;;19.93;66.20;101881.34;5058209;28;1837;-58
2021/08/29 00:37:29;;;;;;;;;;;;;;;19.93;65.80;101881.34;5055563;28;910;-57
2021/08/29 00:39:54;;;;;;;;;;;;;;;19.92;65.85;101874.22;5056764;28;957;-59
2021/08/29 00:42:19;;;;;;;;;;;;;;;19.91;65.89;101878.78;5056913;28;1903;-57
2021/08/29 00:44:44;;;;;;;;;;;;;;;19.91;66.34;101875.22;5057068;28;998;-58
2021/08/29 00:47:09;;;;;;;;;;;;;;;19.89;65.75;101875.34;5057195;28;1668;-54
2021/08/29 00:49:34;;;;;;;;;;;;;;;19.89;65.73;101874.47;5056352;28;853;-52
2021/08/29 00:51:59;;;;;;;;;;;;;;;19.88;65.91;101879.06;5064413;28;1839;-54
2021/08/29 00:54:24;;;;;;;;;;;;;;;19.87;65.39;101882.75;5076776;28;922;-52
2021/08/29 00:56:49;;;;;;;;;;;;;;;19.87;66.50;101873.78;5077101;28;823;-54
2021/08/29 00:59:14;;;;;;;;;;;;;;;19.85;66.20;101886.59;5076325;28;925;-54
2021/08/29 01:01:40;;;;;;;;;;;;;;;19.86;66.53;101878.34;5059707;28;1868;-55
2021/08/29 01:04:05;;;;;;;;;;;;;;;19.86;66.40;101880.19;5076301;28;1956;-58
2021/08/29 01:06:30;;;;;;;;;;;;;;;19.85;66.43;101876.63;5075204;28;1076;-57
2021/08/29 01:08:55;;;;;;;;;;;;;;;19.85;66.24;101873.06;5076160;28;1951;-57
2021/08/29 01:11:20;;;;;;;;;;;;;;;19.85;65.63;101871.22;5056133;28;1145;-58
2021/08/29 01:13:45;;;;;;;;;;;;;;;19.85;65.96;101873.94;5056266;28;930;-57
2021/08/29 01:16:10;;;;;;;;;;;;;;;19.85;66.13;101864.94;5055896;28;929;-56
2021/08/29 01:18:35;;;;;;;;;;;;;;;19.84;65.19;101863.25;5055240;28;1727;-56
2021/08/29 01:21:00;;;;;;;;;;;;;;;19.82;66.24;101863.38;5056305;28;1796;-57
2021/08/29 01:23:25;;;;;;;;;;;;;;;19.83;65.58;101869.63;5055738;28;1966;-57
2021/08/29 01:25:50;;;;;;;;;;;;;;;19.83;65.37;101869.63;5056906;28;1905;-53
2021/08/29 01:28:16;;;;;;;;;;;;;;;19.83;66.45;101875.03;5056410;28;1731;-55
2021/08/29 01:30:41;;;;;;;;;;;;;;;19.82;65.49;101876.88;5056116;28;993;-55
2021/08/29 01:33:07;;;;;;;;;;;;;;;19.81;65.18;101874.31;5055984;28;898;-56
2021/08/29 01:35:32;;;;;;;;;;;;;;;19.80;66.12;101875.31;5056338;28;861;-56
2021/08/29 01:37:57;;;;;;;;;;;;;;;19.79;65.70;101874.44;5056035;28;1801;-57
2021/08/29 01:40:22;;;;;;;;;;;;;;;19.81;66.05;101868.91;5056055;28;817;-58
2021/08/29 01:42:47;;;;;;;;;;;;;;;19.78;64.76;101878.16;5055655;28;1894;-56
2021/08/29 01:45:12;;;;;;;;;;;;;;;19.77;65.27;101877.28;5055729;28;1693;-57
2021/08/29 01:47:37;;;;;;;;;;;;;;;19.77;65.90;101874.59;5055977;28;929;-57
2021/08/29 01:50:02;;;;;;;;;;;;;;;19.79;65.53;101879.00;5056086;28;993;-57
2021/08/29 01:52:27;;;;;;;;;;;;;;;19.77;65.34;101871.88;5055437;28;1000;-56
2021/08/29 01:54:52;;;;;;;;;;;;;;;19.75;65.92;101873.84;5059622;28;1685;-56
2021/08/29 01:57:18;;;;;;;;;;;;;;;19.76;65.39;101870.16;5075463;28;1029;-54
2021/08/29 01:59:43;;;;;;;;;;;;;;;19.76;65.03;101872.00;5075236;28;918;-54
2021/08/29 02:02:08;;;;;;;;;;;;;;;19.75;65.10;101873.84;5075625;28;1889;-52
2021/08/29 02:04:33;;;;;;;;;;;;;;;19.75;65.56;101871.16;5075260;28;1788;-54
2021/08/29 02:06:59;;;;;;;;;;;;;;;19.74;65.42;101868.56;5065610;28;1771;-55
2021/08/29 02:09:24;;;;;;;;;;;;;;;19.73;66.19;101870.44;5054920;28;962;-56
2021/08/29 02:11:49;;;;;;;;;;;;;;;19.74;65.08;101874.84;5054769;28;1186;-56
2021/08/29 02:14:14;;;;;;;;;;;;;;;19.74;65.50;101872.13;5055937;28;1048;-54
2021/08/29 02:16:40;;;;;;;;;;;;;;;19.72;64.71;101876.81;5055002;28;906;-55
2021/08/29 02:19:05;;;;;;;;;;;;;;;19.72;64.92;101876.81;5054239;28;2382;-55
2021/08/29 02:21:30;;;;;;;;;;;;;;;19.71;65.05;101877.81;5054789;28;1001;-52
2021/08/29 02:23:55;;;;;;;;;;;;;;;19.72;64.93;101873.25;5055418;28;1914;-54
2021/08/29 02:26:20;;;;;;;;;;;;;;;19.71;65.26;101877.81;5055236;28;803;-55
2021/08/29 02:28:45;;;;;;;;;;;;;;;19.69;65.06;101868.16;5054924;28;1932;-55
2021/08/29 02:31:10;;;;;;;;;;;;;;;19.69;65.66;101874.41;5055105;28;1770;-55
2021/08/29 02:33:35;;;;;;;;;;;;;;;19.69;64.87;101871.72;5054974;28;974;-54
2021/08/29 02:36:00;;;;;;;;;;;;;;;19.69;64.26;101869.00;5055258;28;815;-56
2021/08/29 02:38:26;;;;;;;;;;;;;;;19.68;65.04;101867.28;5054926;28;871;-56
2021/08/29 02:40:52;;;;;;;;;;;;;;;19.68;65.34;101864.59;5061619;28;1887;-56
2021/08/29 02:43:17;;;;;;;;;;;;;;;19.67;65.84;101868.28;5075113;28;1898;-56
2021/08/29 02:45:42;;;;;;;;;;;;;;;19.67;64.88;101862.88;5075111;28;803;-56
2021/08/29 02:48:07;;;;;;;;;;;;;;;19.66;65.77;101860.28;5075254;28;989;-56
2021/08/29 02:50:32;;;;;;;;;;;;;;;19.66;65.17;101858.44;5074956;28;953;-57
2021/08/29 02:52:57;;;;;;;;;;;;;;;19.66;64.75;101869.25;5074920;28;984;-57
2021/08/29 02:55:22;;;;;;;;;;;;;;;19.66;65.13;101863.00;5074423;28;882;-57
2021/08/29 02:57:47;;;;;;;;;;;;;;;19.63;64.78;101864.13;5073615;28;1009;-57
2021/08/29 03:00:12;;;;;;;;;;;;;;;19.64;64.74;101863.13;5060457;28;1874;-56
2021/08/29 03:02:37;;;;;;;;;;;;;;;19.65;65.03;101862.13;5074801;28;1918;-57
2021/08/29 03:05:02;;;;;;;;;;;;;;;19.63;65.16;101858.72;5074421;28;1005;-57
2021/08/29 03:07:27;;;;;;;;;;;;;;;19.63;64.67;101858.72;5074935;28;1004;-56
2021/08/29 03:09:53;;;;;;;;;;;;;;;19.63;64.82;101853.31;5074572;28;1778;-57
2021/08/29 03:12:18;;;;;;;;;;;;;;;19.63;64.44;101847.03;5058162;28;1767;-57
2021/08/29 03:14:43;;;;;;;;;;;;;;;19.62;65.26;101851.59;5054619;28;1013;-57
2021/08/29 03:17:08;;;;;;;;;;;;;;;19.62;65.42;101857.00;5054505;28;916;-58
2021/08/29 03:19:33;;;;;;;;;;;;;;;19.61;64.36;101852.56;5054616;28;898;-57
2021/08/29 03:21:58;;;;;;;;;;;;;;;19.60;64.81;101853.56;5054496;28;1910;-57
2021/08/29 03:24:23;;;;;;;;;;;;;;;19.60;65.02;101856.25;5054539;28;819;-57
2021/08/29 03:26:48;;;;;;;;;;;;;;;19.60;64.77;101839.19;5058055;28;1747;-57
2021/08/29 03:29:13;;;;;;;;;;;;;;;19.60;65.32;101842.75;5074739;28;1584;-57
2021/08/29 03:31:38;;;;;;;;;;;;;;;19.60;64.81;101839.19;5074189;28;843;-58
2021/08/29 03:34:03;;;;;;;;;;;;;;;19.58;64.84;101842.03;5074525;28;989;-58
2021/08/29 03:36:28;;;;;;;;;;;;;;;19.59;64.94;101840.16;5059744;28;1642;-58
2021/08/29 03:38:54;;;;;;;;;;;;;;;19.58;64.74;101836.59;5054626;28;1628;-57
2021/08/29 03:41:19;;;;;;;;;;;;;;;19.57;64.52;101840.31;5056624;28;1060;-57
2021/08/29 03:43:44;;;;;;;;;;;;;;;19.56;65.09;101838.59;5057779;28;1973;-57
2021/08/29 03:46:09;;;;;;;;;;;;;;;19.57;64.68;101837.59;5072553;28;1786;-56
2021/08/29 03:48:34;;;;;;;;;;;;;;;19.56;65.21;101833.19;5078064;28;1634;-56
2021/08/29 03:50:59;;;;;;;;;;;;;;;19.56;64.37;101830.47;5077948;28;1028;-56
2021/08/29 03:53:24;;;;;;;;;;;;;;;19.56;65.10;101835.03;5077465;28;934;-56
2021/08/29 03:55:49;;;;;;;;;;;;;;;19.56;65.64;101824.22;5077862;28;989;-56
2021/08/29 03:58:14;;;;;;;;;;;;;;;19.56;65.18;101829.63;5078056;28;1537;-56
2021/08/29 04:00:39;;;;;;;;;;;;;;;19.55;65.03;101826.06;5077633;28;862;-56
2021/08/29 04:03:05;;;;;;;;;;;;;;;19.55;65.06;101822.50;5072075;28;1967;-56
2021/08/29 04:05:30;;;;;;;;;;;;;;;19.54;64.72;101820.78;5057458;28;1013;-57
2021/08/29 04:07:55;;;;;;;;;;;;;;;19.54;65.05;101824.34;5058113;28;1663;-56
2021/08/29 04:10:20;;;;;;;;;;;;;;;19.53;64.90;101819.91;5057369;28;1366;-58
2021/08/29 04:12:45;;;;;;;;;;;;;;;19.53;65.11;101819.91;5057560;28;874;-57
2021/08/29 04:15:11;;;;;;;;;;;;;;;19.52;65.19;101812.84;5057701;28;1068;-57
2021/08/29 04:17:36;;;;;;;;;;;;;;;19.52;64.79;101818.25;5057358;28;1807;-57
2021/08/29 04:20:01;;;;;;;;;;;;;;;19.52;65.18;101818.25;5057559;28;1009;-55
2021/08/29 04:22:26;;;;;;;;;;;;;;;19.51;65.90;101816.53;5074576;28;1910;-57
2021/08/29 04:24:51;;;;;;;;;;;;;;;19.50;65.48;101814.81;5077178;28;834;-57
2021/08/29 04:27:16;;;;;;;;;;;;;;;19.50;64.73;101809.41;5076915;28;1582;-57
2021/08/29 04:29:41;;;;;;;;;;;;;;;19.50;65.40;101809.41;5077303;28;925;-57
2021/08/29 04:32:06;;;;;;;;;;;;;;;19.50;65.66;101814.81;5077464;28;828;-57
2021/08/29 04:34:31;;;;;;;;;;;;;;;19.52;64.89;101814.69;5077037;28;1068;-57
2021/08/29 04:36:56;;;;;;;;;;;;;;;19.50;65.56;101812.09;5077008;28;1540;-57
2021/08/29 04:39:21;;;;;;;;;;;;;;;19.51;65.72;101816.53;5069217;28;1880;-57
2021/08/29 04:41:47;;;;;;;;;;;;;;;19.49;65.42;101813.06;5057107;28;791;-54
2021/08/29 04:44:12;;;;;;;;;;;;;;;19.49;65.82;101813.06;5056433;28;1959;-55
2021/08/29 04:46:37;;;;;;;;;;;;;;;19.49;65.17;101807.66;5056621;28;799;-54
2021/08/29 04:49:02;;;;;;;;;;;;;;;19.48;65.19;101813.19;5056738;28;1802;-54
2021/08/29 04:51:27;;;;;;;;;;;;;;;19.49;65.36;101817.59;5056068;28;874;-54
2021/08/29 04:53:52;;;;;;;;;;;;;;;19.47;65.39;101815.03;5055865;28;909;-53
2021/08/29 04:56:18;;;;;;;;;;;;;;;19.47;65.05;101816.88;5056975;28;1853;-55
2021/08/29 04:58:43;;;;;;;;;;;;;;;19.47;65.88;101817.75;5056998;28;997;-54
2021/08/29 05:01:08;;;;;;;;;;;;;;;19.47;65.96;101825.84;5057732;28;1860;-56
2021/08/29 05:03:33;;;;;;;;;;;;;;;19.46;65.34;101824.13;5056638;28;1902;-57
2021/08/29 05:05:58;;;;;;;;;;;;;;;19.46;64.78;101824.13;5056068;28;923;-57
2021/08/29 05:08:23;;;;;;;;;;;;;;;19.46;64.99;101823.28;5056759;28;1065;-57
2021/08/29 05:10:48;;;;;;;;;;;;;;;19.44;65.16;101828.81;5056345;28;1288;-58
2021/08/29 05:13:13;;;;;;;;;;;;;;;19.45;65.90;101827.81;5056508;28;866;-58
2021/08/29 05:15:38;;;;;;;;;;;;;;;19.43;65.97;101825.25;5055240;28;1811;-58
2021/08/29 05:18:03;;;;;;;;;;;;;;;19.45;65.88;101821.56;5056384;28;1025;-58
2021/08/29 05:20:28;;;;;;;;;;;;;;;19.44;65.35;101826.09;5056338;28;951;-58
2021/08/29 05:22:53;;;;;;;;;;;;;;;19.43;65.74;101824.41;5056142;28;1983;-57
2021/08/29 05:25:18;;;;;;;;;;;;;;;19.43;65.43;101830.66;5056609;28;1622;-57
2021/08/29 05:27:44;;;;;;;;;;;;;;;19.42;65.63;101822.69;5056277;28;851;-58
2021/08/29 05:30:09;;;;;;;;;;;;;;;19.42;65.52;101825.38;5055809;28;914;-59
2021/08/29 05:32:34;;;;;;;;;;;;;;;19.41;65.09;101821.81;5058060;28;1987;-56
2021/08/29 05:34:59;;;;;;;;;;;;;;;19.41;64.62;101815.56;5070007;28;1644;-56
2021/08/29 05:37:24;;;;;;;;;;;;;;;19.42;65.93;101822.69;5055849;28;981;-56
2021/08/29 05:39:49;;;;;;;;;;;;;;;19.43;65.49;101821.69;5054515;28;1260;-55
2021/08/29 05:42:14;;;;;;;;;;;;;;;19.43;65.64;101825.25;5056030;28;1971;-57
2021/08/29 05:44:39;;;;;;;;;;;;;;;19.45;64.42;101824.25;5055741;28;961;-57
2021/08/29 05:47:04;;;;;;;;;;;;;;;19.45;65.25;101825.13;5045714;28;1719;-58
2021/08/29 05:49:29;;;;;;;;;;;;;;;19.44;65.44;101823.41;5044545;28;1367;-59
2021/08/29 05:51:54;;;;;;;;;;;;;;;19.45;65.64;101821.56;5040614;28;1331;-58
2021/08/29 05:54:19;;;;;;;;;;;;;;;19.45;65.64;101827.81;5058908;28;1742;-59
2021/08/29 05:56:44;;;;;;;;;;;;;;;19.45;65.93;101830.53;5056635;28;1669;-58
2021/08/29 05:59:09;;;;;;;;;;;;;;;19.47;65.26;101830.41;5043704;28;1575;-58
2021/08/29 06:01:35;;;;;;;;;;;;;;;19.46;65.79;101823.28;5044973;28;1415;-58
2021/08/29 06:04:00;;;;;;;;;;;;;;;19.46;65.74;101829.53;5054458;28;2121;-59
2021/08/29 06:06:25;;;;;;;;;;;;;;;19.46;66.20;101829.53;5069971;28;1485;-59
2021/08/29 06:08:50;;;;;;;;;;;;;;;19.47;65.31;101828.56;5058379;28;1438;-58
2021/08/29 06:11:15;;;;;;;;;;;;;;;19.47;65.54;101825.00;5063621;28;1936;-59
2021/08/29 06:13:40;;;;;;;;;;;;;;;19.46;65.52;101828.69;5055269;28;1744;-59
2021/08/29 06:16:05;;;;;;;;;;;;;;;19.45;65.74;101822.41;5044964;28;1481;-58
2021/08/29 06:18:30;;;;;;;;;;;;;;;19.45;65.25;101822.41;5046448;28;1543;-59
2021/08/29 06:20:55;;;;;;;;;;;;;;;19.46;64.58;101828.69;5046990;28;2030;-60
2021/08/29 06:23:20;;;;;;;;;;;;;;;19.45;65.14;101816.16;5053158;28;1906;-59
2021/08/29 06:25:45;;;;;;;;;;;;;;;19.44;64.70;101820.69;5054559;28;1735;-58
2021/08/29 06:28:10;;;;;;;;;;;;;;;19.45;65.19;101822.41;5054484;28;1712;-58
2021/08/29 06:30:36;;;;;;;;;;;;;;;19.44;64.89;101820.69;5056495;28;1811;-58
2021/08/29 06:33:01;;;;;;;;;;;;;;;19.43;65.43;101822.56;5056704;28;1628;-58
2021/08/29 06:35:26;;;;;;;;;;;;;;;19.45;65.11;101816.16;5055547;28;1817;-59
2021/08/29 06:37:51;;;;;;;;;;;;;;;19.44;65.50;101818.00;5058020;28;2298;-58
2021/08/29 06:40:16;;;;;;;;;;;;;;;19.44;65.58;101820.69;5040247;28;1632;-58
2021/08/29 06:42:41;;;;;;;;;;;;;;;19.45;64.58;101825.13;5062257;28;2097;-58
2021/08/29 06:45:06;;;;;;;;;;;;;;;19.44;65.34;101812.59;5062138;28;1824;-58
2021/08/29 06:47:31;;;;;;;;;;;;;;;19.43;65.41;101810.88;5068450;28;1863;-60
2021/08/29 06:49:56;;;;;;;;;;;;;;;19.43;64.93;101810.88;5065966;28;1988;-57
2021/08/29 06:52:21;;;;;;;;;;;;;;;19.44;65.07;101809.88;5054016;28;1238;-58
2021/08/29 06:54:47;;;;;;;;;;;;;;;19.45;64.85;101805.34;5058310;28;1685;-58
2021/08/29 06:57:12;;;;;;;;;;;;;;;19.44;65.63;101801.78;5058912;28;1968;-58
2021/08/29 06:59:37;;;;;;;;;;;;;;;19.43;65.50;101797.38;5070248;28;1903;-57
2021/08/29 07:02:02;;;;;;;;;;;;;;;19.43;65.72;101794.66;5050169;28;1562;-57
2021/08/29 07:04:27;;;;;;;;;;;;;;;19.43;65.40;101800.91;5058614;28;1886;-57
2021/08/29 07:06:52;;;;;;;;;;;;;;;19.44;65.04;101796.38;5058278;28;1913;-57
2021/08/29 07:09:17;;;;;;;;;;;;;;;19.43;65.29;101797.38;5071199;28;1987;-58
2021/08/29 07:11:42;;;;;;;;;;;;;;;19.44;65.00;101793.66;5058992;28;2005;-57
2021/08/29 07:14:07;;;;;;;;;;;;;;;19.43;64.47;101790.09;5061436;28;1881;-57
2021/08/29 07:16:32;;;;;;;;;;;;;;;19.43;64.88;101800.91;5056738;28;1813;-57
2021/08/29 07:18:57;;;;;;;;;;;;;;;19.44;65.51;101796.38;5070729;28;1827;-57
2021/08/29 07:21:22;;;;;;;;;;;;;;;19.43;65.49;101794.66;5057112;28;1890;-57
2021/08/29 07:23:47;;;;;;;;;;;;;;;19.44;65.36;101793.66;5046236;28;1906;-56
2021/08/29 07:26:14;;;;;;;;;;;;;;;19.43;64.92;101797.38;5046660;28;1703;-57
2021/08/29 07:28:39;;;;;;;;;;;;;;;19.45;65.47;101800.78;5069690;28;1842;-58
2021/08/29 07:31:04;;;;;;;;;;;;;;;19.45;65.50;101800.78;5062394;28;1762;-57
2021/08/29 07:33:29;;;;;;;;;;;;;;;19.43;65.44;101792.81;5040517;28;1842;-58
2021/08/29 07:35:54;;;;;;;;;;;;;;;19.44;64.71;101804.47;5041005;28;1609;-58
2021/08/29 07:38:19;;;;;;;;;;;;;;;19.44;65.36;101799.06;5053825;28;1884;-58
2021/08/29 07:40:44;;;;;;;;;;;;;;;19.46;65.13;101801.66;5062537;28;1895;-58
2021/08/29 07:43:09;;;;;;;;;;;;;;;19.44;65.96;101796.38;5057347;28;1986;-57
2021/08/29 07:45:34;;;;;;;;;;;;;;;19.44;65.22;101793.66;5057372;28;1842;-58
2021/08/29 07:48:00;;;;;;;;;;;;;;;19.44;65.08;101796.38;5066060;28;1694;-58
2021/08/29 07:50:25;;;;;;;;;;;;;;;19.45;65.40;101799.94;5057519;28;1779;-58
2021/08/29 07:52:50;;;;;;;;;;;;;;;19.44;65.44;101793.66;5057155;28;1654;-57
2021/08/29 07:55:15;;;;;;;;;;;;;;;19.45;66.22;101800.78;5057515;28;1945;-58
2021/08/29 07:57:40;;;;;;;;;;;;;;;19.45;66.13;101800.78;5057524;28;1920;-58
2021/08/29 08:00:05;;;;;;;;;;;;;;;19.46;65.73;101802.50;5057188;28;1953;-58
2021/08/29 08:02:30;;;;;;;;;;;;;;;19.47;65.26;101795.25;5057089;28;1953;-58
2021/08/29 08:04:55;;;;;;;;;;;;;;;19.46;65.45;101791.69;5055520;28;1925;-58
2021/08/29 08:07:20;;;;;;;;;;;;;;;19.46;66.54;101797.09;5057165;28;2029;-58
2021/08/29 08:09:45;;;;;;;;;;;;;;;19.45;66.31;101795.38;5057082;28;1933;-58
2021/08/29 08:12:10;;;;;;;;;;;;;;;19.46;65.90;101801.66;5056619;28;1805;-59
2021/08/29 08:14:35;;;;;;;;;;;;;;;19.46;65.52;101796.25;5058048;28;1667;-58
2021/08/29 08:17:01;;;;;;;;;;;;;;;19.45;65.26;101792.69;5056897;28;1931;-58
2021/08/29 08:19:26;;;;;;;;;;;;;;;19.46;65.13;101797.09;5057528;28;2056;-58
2021/08/29 08:21:51;;;;;;;;;;;;;;;19.47;65.45;101793.41;5060038;28;1812;-57
2021/08/29 08:24:16;;;;;;;;;;;;;;;19.47;65.39;101797.97;5056761;28;1977;-58
2021/08/29 08:26:41;;;;;;;;;;;;;;;19.46;66.10;101786.28;5057644;28;1857;-58
2021/08/29 08:29:06;;;;;;;;;;;;;;;19.47;66.36;101796.13;5068952;28;1943;-58
2021/08/29 08:31:31;;;;;;;;;;;;;;;19.47;65.73;101788.00;5063696;28;1855;-57
2021/08/29 08:33:56;;;;;;;;;;;;;;;19.46;66.16;101791.69;5055027;28;1856;-58
2021/08/29 08:36:21;;;;;;;;;;;;;;;19.42;65.96;101788.41;5058934;28;1539;-58
2021/08/29 08:38:46;;;;;;;;;;;;;;;19.42;65.88;101791.09;5061940;28;1861;-58
2021/08/29 08:41:12;;;;;;;;;;;;;;;19.43;65.91;101790.09;5053986;28;1981;-59
2021/08/29 08:43:37;;;;;;;;;;;;;;;19.42;66.04;101784.84;5049398;28;1976;-59
2021/08/29 08:46:03;;;;;;;;;;;;;;;19.42;65.97;101787.53;5056584;28;1927;-58
2021/08/29 08:48:28;;;;;;;;;;;;;;;19.46;67.06;101796.25;5044154;28;1663;-58
2021/08/29 08:50:53;;;;;;;;;;;;;;;19.50;68.81;101790.47;5059402;28;1718;-58
2021/08/29 08:53:19;;;;;;;;;;;;;;;19.55;69.05;101790.91;5052380;28;1572;-58
2021/08/29 08:55:44;;;;;;;;;;;;;;;19.56;68.79;101789.91;5053551;28;1599;-57
2021/08/29 08:58:09;;;;;;;;;;;;;;;19.56;67.70;101792.63;5056477;28;1896;-58
2021/08/29 09:00:34;;;;;;;;;;;;;;;19.57;68.05;101782.66;5056112;28;1835;-58
2021/08/29 09:02:59;;;;;;;;;;;;;;;19.56;67.39;101791.75;5053434;28;1898;-58
2021/08/29 09:05:24;;;;;;;;;;;;;;;19.55;67.51;101782.78;5055942;28;1636;-58
2021/08/29 09:07:49;;;;;;;;;;;;;;;19.54;67.34;101793.75;5061235;28;1936;-58
2021/08/29 09:10:14;;;;;;;;;;;;;;;19.53;67.24;101782.06;5056171;28;2049;-58
2021/08/29 09:12:39;;;;;;;;;;;;;;;19.54;67.46;101782.94;5054479;28;1635;-58
2021/08/29 09:15:04;;;;;;;;;;;;;;;19.52;67.33;101780.38;5055997;28;1942;-60
2021/08/29 09:17:30;;;;;;;;;;;;;;;19.52;66.62;101785.78;5056266;28;1910;-59
2021/08/29 09:19:55;;;;;;;;;;;;;;;19.51;66.75;101778.66;5056063;28;2016;-58
2021/08/29 09:22:20;;;;;;;;;;;;;;;19.50;67.02;101774.25;5055469;28;1975;-60
2021/08/29 09:24:45;;;;;;;;;;;;;;;19.50;66.95;101776.97;5050831;28;1838;-60
2021/08/29 09:27:10;;;;;;;;;;;;;;;19.50;67.03;101776.97;5054896;28;1543;-59
2021/08/29 09:29:35;;;;;;;;;;;;;;;19.50;67.01;101770.69;5055319;28;1534;-59
2021/08/29 09:32:00;;;;;;;;;;;;;;;19.49;67.36;101767.09;5055544;28;1945;-60
2021/08/29 09:34:25;;;;;;;;;;;;;;;19.49;67.63;101769.81;5056061;28;1831;-58
2021/08/29 09:36:51;;;;;;;;;;;;;;;19.46;67.91;101767.38;5055448;28;1936;-58
2021/08/29 09:39:16;;;;;;;;;;;;;;;19.47;67.91;101776.31;5055145;28;1832;-58
2021/08/29 09:41:41;;;;;;;;;;;;;;;19.45;67.93;101771.06;5055996;28;1900;-58
2021/08/29 09:44:06;;;;;;;;;;;;;;;19.43;68.08;101763.06;5052780;28;1947;-58
2021/08/29 09:46:31;;;;;;;;;;;;;;;19.44;67.84;101766.63;5055325;28;1717;-58
2021/08/29 09:48:57;;;;;;;;;;;;;;;19.43;68.49;101773.03;5055451;28;2061;-58
2021/08/29 09:51:24;;;;;;;;;;;;;;;19.41;68.01;101767.75;5055603;28;1740;-58
2021/08/29 09:53:49;;;;;;;;;;;;;;;19.42;67.37;101765.91;5055394;28;2370;-59
2021/08/29 09:56:14;;;;;;;;;;;;;;;19.40;67.67;101766.03;5055427;28;2093;-58
2021/08/29 09:58:39;;;;;;;;;;;;;;;19.41;67.00;101766.91;5055528;28;2009;-58
2021/08/29 10:01:08;;;;;;;;;;;;;;;19.39;67.75;101766.19;5055108;28;2065;-58
2021/08/29 10:03:33;;;;;;;;;;;;;;;19.38;67.05;101761.75;5055081;28;1953;-59
2021/08/29 10:05:58;;;;;;;;;;;;;;;19.39;67.11;101766.19;5055325;28;2028;-59
2021/08/29 10:08:23;;;;;;;;;;;;;;;19.39;67.38;101749.97;5054639;28;1735;-58
2021/08/29 10:10:48;;;;;;;;;;;;;;;19.39;67.51;101758.91;5054694;28;1725;-58
2021/08/29 10:13:13;;;;;;;;;;;;;;;19.37;66.86;101760.91;5054630;28;1769;-58
2021/08/29 10:15:39;;;;;;;;;;;;;;;19.38;67.10;101753.66;5054737;28;1866;-57
2021/08/29 10:18:04;;;;;;;;;;;;;;;19.41;67.92;101750.69;5055002;28;1981;-57
2021/08/29 10:20:29;;;;;;;;;;;;;;;19.42;67.41;101742.44;5063742;28;1570;-58
2021/08/29 10:22:54;;;;;;;;;;;;;;;19.44;68.46;101755.81;5053807;28;1965;-58
2021/08/29 10:25:19;;;;;;;;;;;;;;;19.44;67.33;101750.41;5054738;28;1934;-58
2021/08/29 10:27:44;;;;;;;;;;;;;;;19.44;67.98;101745.00;5056275;28;1614;-58
2021/08/29 10:30:09;;;;;;;;;;;;;;;19.44;67.49;101747.72;5054766;28;1836;-58
2021/08/29 10:32:35;;;;;;;;;;;;;;;19.43;67.60;101740.59;5054987;28;2053;-58
2021/08/29 10:35:00;;;;;;;;;;;;;;;19.43;67.83;101748.69;5053420;28;1838;-58
2021/08/29 10:37:25;;;;;;;;;;;;;;;19.43;67.64;101740.59;5054836;28;1818;-58
2021/08/29 10:39:50;;;;;;;;;;;;;;;19.42;68.20;101744.28;5054782;28;2000;-58
2021/08/29 10:42:15;;;;;;;;;;;;;;;19.41;67.30;101739.88;5054390;28;1976;-58
2021/08/29 10:44:40;;;;;;;;;;;;;;;19.40;67.93;101748.97;5054836;28;1853;-58
2021/08/29 10:47:05;;;;;;;;;;;;;;;19.40;67.74;101738.16;5054761;28;2014;-58
2021/08/29 10:49:31;;;;;;;;;;;;;;;19.39;67.29;101736.44;5054809;28;2204;-58
2021/08/29 10:51:57;;;;;;;;;;;;;;;19.39;67.10;101742.69;5058326;28;2017;-59
2021/08/29 10:54:22;;;;;;;;;;;;;;;19.38;67.12;101741.00;5058575;28;2042;-58
2021/08/29 10:56:48;;;;;;;;;;;;;;;19.38;67.67;101732.88;5059050;28;1976;-58
2021/08/29 10:59:13;;;;;;;;;;;;;;;19.36;67.74;101734.00;5058826;28;2171;-58
2021/08/29 11:01:38;;;;;;;;;;;;;;;19.38;67.65;101735.59;5058573;28;2043;-58
2021/08/29 11:04:03;;;;;;;;;;;;;;;19.36;67.55;101723.19;5057395;28;2052;-58
2021/08/29 11:06:28;;;;;;;;;;;;;;;19.36;66.52;101729.44;5058742;28;1882;-58
2021/08/29 11:08:53;;;;;;;;;;;;;;;19.36;66.81;101731.28;5058473;28;2074;-58
2021/08/29 11:11:18;;;;;;;;;;;;;;;19.36;68.05;101724.03;5058536;28;1986;-58
2021/08/29 11:13:43;;;;;;;;;;;;;;;19.35;66.91;101719.63;5060673;28;2018;-58
2021/08/29 11:16:17;;;;;;;;;;;;;;;19.35;67.83;101735.84;5057962;28;1921;-58
2021/08/29 11:18:42;;;;;;;;;;;;;;;19.35;66.95;101724.19;5052027;28;1667;-58
2021/08/29 11:21:07;;;;;;;;;;;;;;;19.35;67.28;101726.88;5057510;28;1517;-58
2021/08/29 11:23:32;;;;;;;;;;;;;;;19.36;67.90;101725.88;5057247;28;1906;-58
2021/08/29 11:25:57;;;;;;;;;;;;;;;19.35;67.55;101716.06;5057544;28;1688;-55
2021/08/29 11:28:23;;;;;;;;;;;;;;;19.34;67.08;101726.06;5049006;28;1654;-57
2021/08/29 11:30:48;;;;;;;;;;;;;;;19.34;67.28;101733.31;5056945;28;1744;-56
2021/08/29 11:33:13;;;;;;;;;;;;;;;19.34;68.04;101736.00;5062947;28;1807;-57
2021/08/29 11:35:39;;;;;;;;;;;;;;;19.34;68.28;101741.41;5058101;28;2047;-57
2021/08/29 11:38:04;;;;;;;;;;;;;;;19.35;69.15;101735.84;5057709;28;1632;-57
2021/08/29 11:40:29;;;;;;;;;;;;;;;19.37;68.83;101738.41;5056780;28;1844;-55
2021/08/29 11:42:54;;;;;;;;;;;;;;;19.39;69.65;101736.44;5057578;28;1902;-56
2021/08/29 11:45:23;;;;;;;;;;;;;;;19.40;69.10;101732.75;5058043;28;1994;-57
2021/08/29 11:47:48;;;;;;;;;;;;;;;19.41;69.39;101734.47;5057738;28;2075;-57
2021/08/29 11:50:13;;;;;;;;;;;;;;;19.39;69.61;101729.19;5058036;28;1909;-56
2021/08/29 11:52:39;;;;;;;;;;;;;;;19.40;70.08;101727.34;5057519;28;1961;-57
2021/08/29 11:55:04;;;;;;;;;;;;;;;19.43;69.91;101732.47;5058188;28;2089;-58
2021/08/29 11:57:29;;;;;;;;;;;;;;;19.45;69.31;101722.38;5057699;28;2208;-58
2021/08/29 11:59:55;;;;;;;;;;;;;;;19.42;68.92;101722.66;5044323;28;2040;-57
2021/08/29 12:02:20;;;;;;;;;;;;;;;19.41;69.59;101729.06;5056555;28;1891;-57
2021/08/29 12:04:45;;;;;;;;;;;;;;;19.40;69.85;101728.19;5057016;28;1653;-57
2021/08/29 12:07:10;;;;;;;;;;;;;;;19.40;69.22;101720.09;5057488;28;1904;-57
2021/08/29 12:09:35;;;;;;;;;;;;;;;19.40;70.09;101721.94;5060012;28;1825;-57
2021/08/29 12:12:01;;;;;;;;;;;;;;;19.41;69.59;101723.66;5060271;28;1536;-57
2021/08/29 12:14:26;;;;;;;;;;;;;;;19.40;69.36;101730.91;5058306;28;2241;-57
2021/08/29 12:16:51;;;;;;;;;;;;;;;19.39;69.13;101729.19;5057687;28;1925;-55
2021/08/29 12:19:16;;;;;;;;;;;;;;;19.40;68.34;101727.34;5059854;28;1651;-56
2021/08/29 12:21:42;;;;;;;;;;;;;;;19.39;68.71;101725.63;5060780;28;1718;-53
2021/08/29 12:24:07;;;;;;;;;;;;;;;19.39;68.91;101721.06;5057537;28;1914;-57
2021/08/29 12:26:36;;;;;;;;;;;;;;;19.40;68.14;101717.38;5058791;28;1895;-57
2021/08/29 12:29:01;;;;;;;;;;;;;;;19.42;68.64;101720.81;5057034;28;1973;-57
2021/08/29 12:31:26;;;;;;;;;;;;;;;19.43;67.97;101718.97;5057164;28;2085;-56
2021/08/29 12:33:51;;;;;;;;;;;;;;;19.43;68.46;101717.13;5055718;28;1766;-56
2021/08/29 12:36:16;;;;;;;;;;;;;;;19.43;68.44;101716.25;5057060;28;1805;-56